createdAt,value
2022-08-18T00:01:36.760Z,13.82
2022-08-18T00:04:35.831Z,18.15
2022-08-18T00:07:23.538Z,12.60
2022-08-18T00:10:05.331Z,12.40
2022-08-18T00:12:49.299Z,20.73
2022-08-18T00:15:22.671Z,13.10
2022-08-18T00:18:04.343Z,10.13
2022-08-18T00:20:45.795Z,12.50
2022-08-18T00:23:23.708Z,11.50
2022-08-18T00:26:04.750Z,11.70
2022-08-18T00:28:48.364Z,16.38
2022-08-18T00:31:26.534Z,10.38
2022-08-18T00:34:09.827Z,11.43
2022-08-18T00:36:57.940Z,11.65
2022-08-18T00:39:39.814Z,15.98
2022-08-18T00:42:30.989Z,12.23
2022-08-18T00:45:16.557Z,13.52
2022-08-18T00:47:59.876Z,11.68
2022-08-18T00:50:51.550Z,11.63
2022-08-18T00:53:31.629Z,13.32
2022-08-18T00:56:13.704Z,11.10
2022-08-18T00:59:26.001Z,15.45
2022-08-18T01:02:07.701Z,14.15
2022-08-18T01:04:56.704Z,14.77
2022-08-18T01:07:48.854Z,13.35
2022-08-18T01:10:36.366Z,11.85
2022-08-18T01:13:16.056Z,16.27
2022-08-18T01:16:18.545Z,11.75
2022-08-18T01:19:23.216Z,11.70
2022-08-18T01:22:13.030Z,15.98
2022-08-18T01:25:04.263Z,11.50
2022-08-18T01:27:43.327Z,19.85
2022-08-18T01:30:25.655Z,15.45
2022-08-18T01:33:14.801Z,15.52
2022-08-18T01:35:54.019Z,16.98
2022-08-18T01:38:34.703Z,16.20
2022-08-18T01:41:26.572Z,16.73
2022-08-18T01:44:06.436Z,16.33
2022-08-18T01:46:58.075Z,15.90
2022-08-18T01:49:47.336Z,18.73
2022-08-18T01:52:21.217Z,15.38
2022-08-18T01:54:59.342Z,17.55
2022-08-18T01:57:44.629Z,17.98
2022-08-18T02:00:22.317Z,20.03
2022-08-18T02:03:01.796Z,18.40
2022-08-18T02:05:53.127Z,16.85
2022-08-18T02:08:36.340Z,18.58
2022-08-18T02:11:15.492Z,20.48
2022-08-18T02:13:58.344Z,18.17
2022-08-18T02:16:36.853Z,22.40
2022-08-18T02:19:23.383Z,18.75
2022-08-18T02:22:02.233Z,20.20
2022-08-18T02:24:39.729Z,15.50
2022-08-18T02:27:17.995Z,18.30
2022-08-18T02:29:56.718Z,20.25
2022-08-18T02:32:43.829Z,20.77
2022-08-18T02:35:25.786Z,17.80
2022-08-18T02:38:26.507Z,14.10
2022-08-18T02:41:16.821Z,19.77
2022-08-18T02:44:06.380Z,18.15
2022-08-18T02:46:44.719Z,16.20
2022-08-18T02:49:22.695Z,18.63
2022-08-18T02:51:58.205Z,23.85
2022-08-18T02:54:40.363Z,19.65
2022-08-18T02:57:20.034Z,18.58
2022-08-18T03:00:04.320Z,18.65
2022-08-18T03:02:51.714Z,16.67
2022-08-18T03:05:31.331Z,17.40
2022-08-18T03:08:06.653Z,18.20
2022-08-18T03:10:45.382Z,20.02
2022-08-18T03:13:27.351Z,16.48
2022-08-18T03:16:14.384Z,19.63
2022-08-18T03:18:51.558Z,16.60
2022-08-18T03:21:35.792Z,14.95
2022-08-18T03:24:18.015Z,16.65
2022-08-18T03:27:04.373Z,17.50
2022-08-18T03:29:44.418Z,18.75
2022-08-18T03:32:20.440Z,18.27
2022-08-18T03:35:17.683Z,20.48
2022-08-18T03:37:55.815Z,19.95
2022-08-18T03:40:33.627Z,26.00
2022-08-18T03:43:38.893Z,21.60
2022-08-18T03:46:19.096Z,20.15
2022-08-18T03:49:02.629Z,19.92
2022-08-18T03:51:48.854Z,18.70
2022-08-18T03:54:29.586Z,20.80
2022-08-18T03:57:17.563Z,19.55
2022-08-18T03:59:57.903Z,23.33
2022-08-18T04:02:32.527Z,19.20
2022-08-18T04:05:11.559Z,27.60
2022-08-18T04:07:59.373Z,25.90
2022-08-18T04:10:36.810Z,18.55
2022-08-18T04:13:17.530Z,21.23
2022-08-18T04:15:59.541Z,31.67
2022-08-18T04:18:37.700Z,28.13
2022-08-18T04:21:18.578Z,25.00
2022-08-18T04:24:08.330Z,27.85
2022-08-18T04:26:44.146Z,49.17
2022-08-18T04:29:22.777Z,31.77
2022-08-18T04:32:05.371Z,26.48
2022-08-18T04:34:33.577Z,26.35
2022-08-18T04:37:16.142Z,28.92
2022-08-18T04:40:00.474Z,22.00
2022-08-18T04:42:33.504Z,21.42
2022-08-18T04:45:22.541Z,25.45
2022-08-18T04:48:07.503Z,29.95
2022-08-18T04:50:46.419Z,24.35
2022-08-18T04:53:40.121Z,22.48
2022-08-18T04:58:47.598Z,22.73
2022-08-18T05:01:35.929Z,35.13
2022-08-18T05:04:13.668Z,34.17
2022-08-18T05:06:53.244Z,28.20
2022-08-18T05:09:41.360Z,22.73
2022-08-18T05:12:25.978Z,22.33
2022-08-18T05:15:02.191Z,20.70
2022-08-18T05:17:46.349Z,29.40
2022-08-18T05:20:33.540Z,19.48
2022-08-18T05:23:17.363Z,19.05
2022-08-18T05:26:14.957Z,22.98
2022-08-18T05:29:17.931Z,22.42
2022-08-18T05:32:04.419Z,19.45
2022-08-18T05:34:45.732Z,24.35
2022-08-18T05:37:35.712Z,28.30
2022-08-18T05:40:11.631Z,21.88
2022-08-18T05:42:57.610Z,17.15
2022-08-18T05:45:38.349Z,20.67
2022-08-18T05:48:14.181Z,15.93
2022-08-18T05:50:56.616Z,17.00
2022-08-18T05:53:50.989Z,19.50
2022-08-18T05:56:47.259Z,18.40
2022-08-18T05:59:48.399Z,17.52
2022-08-18T06:02:51.840Z,14.50
2022-08-18T06:05:51.149Z,18.23
2022-08-18T06:08:30.500Z,17.85
2022-08-18T06:11:07.375Z,12.68
2022-08-18T06:13:59.209Z,13.30
2022-08-18T06:16:45.425Z,14.88
2022-08-18T06:20:09.251Z,13.38
2022-08-18T06:22:53.257Z,14.05
2022-08-18T06:26:16.598Z,17.25
2022-08-18T06:29:11.570Z,13.80
2022-08-18T06:32:36.273Z,19.98
2022-08-18T06:35:32.442Z,10.70
2022-08-18T06:38:49.010Z,27.40
2022-08-18T06:41:49.110Z,13.25
2022-08-18T06:45:15.761Z,12.32
2022-08-18T06:48:28.407Z,10.32
2022-08-18T06:51:08.857Z,12.02
2022-08-18T06:54:02.360Z,12.48
2022-08-18T06:56:47.091Z,14.63
2022-08-18T06:59:34.164Z,12.13
2022-08-18T07:02:27.254Z,14.18
2022-08-18T07:05:08.519Z,17.55
2022-08-18T07:07:47.967Z,17.38
2022-08-18T07:10:38.229Z,10.68
2022-08-18T07:13:27.201Z,12.63
2022-08-18T07:16:40.606Z,18.48
2022-08-18T07:19:33.899Z,9.95
2022-08-18T07:22:30.037Z,13.20
2022-08-18T07:25:34.443Z,10.98
2022-08-18T07:28:38.735Z,21.35
2022-08-18T07:31:17.821Z,14.23
2022-08-18T07:34:05.332Z,16.23
2022-08-18T07:37:05.750Z,16.10
2022-08-18T07:39:55.817Z,15.23
2022-08-18T07:43:02.006Z,18.15
2022-08-18T07:45:54.274Z,11.25
2022-08-18T07:48:39.542Z,21.67
2022-08-18T07:51:47.955Z,18.92
2022-08-18T07:54:49.400Z,15.70
2022-08-18T07:57:52.413Z,18.25
2022-08-18T08:01:18.909Z,17.63
2022-08-18T08:03:59.695Z,14.02
2022-08-18T08:06:40.389Z,17.60
2022-08-18T08:09:25.695Z,13.23
2022-08-18T08:12:29.923Z,14.68
2022-08-18T08:15:53.440Z,19.73
2022-08-18T08:18:36.024Z,14.00
2022-08-18T08:21:54.505Z,12.88
2022-08-18T08:24:55.088Z,10.38
2022-08-18T08:28:03.045Z,16.45
2022-08-18T08:31:19.049Z,10.70
2022-08-18T08:34:17.403Z,26.95
2022-08-18T08:37:15.506Z,12.55
2022-08-18T08:39:58.058Z,10.32
2022-08-18T08:42:57.652Z,21.55
2022-08-18T08:45:37.204Z,10.63
2022-08-18T08:48:23.959Z,16.10
2022-08-18T08:51:06.873Z,13.13
2022-08-18T08:53:52.428Z,14.82
2022-08-18T08:56:35.773Z,20.08
2022-08-18T08:59:26.019Z,12.75
2022-08-18T09:02:48.495Z,11.93
2022-08-18T09:05:56.767Z,9.90
2022-08-18T09:09:04.379Z,14.43
2022-08-18T09:12:11.031Z,13.43
2022-08-18T09:15:06.861Z,13.45
2022-08-18T09:18:35.094Z,8.45
2022-08-18T09:21:26.574Z,10.20
2022-08-18T09:24:17.780Z,9.85
2022-08-18T09:27:16.178Z,10.27
2022-08-18T09:30:04.376Z,9.13
2022-08-18T09:36:46.180Z,13.63
2022-08-18T09:43:44.491Z,12.20
2022-08-18T09:46:50.863Z,10.32
2022-08-18T09:49:38.056Z,11.27
2022-08-18T09:52:52.134Z,11.57
2022-08-18T09:58:38.316Z,10.65
2022-08-18T10:01:34.588Z,10.52
2022-08-18T10:04:21.901Z,12.43
2022-08-18T10:07:43.200Z,16.42
2022-08-18T10:11:00.755Z,11.45
2022-08-18T10:13:58.987Z,17.15
2022-08-18T10:17:23.613Z,7.03
2022-08-18T10:20:26.562Z,13.25
2022-08-18T10:23:07.585Z,11.20
2022-08-18T10:26:01.416Z,7.03
2022-08-18T10:28:56.417Z,12.57
2022-08-18T10:31:55.256Z,10.23
2022-08-18T10:34:55.509Z,14.75
2022-08-18T10:37:53.615Z,9.93
2022-08-18T10:40:35.162Z,10.52
2022-08-18T10:43:58.112Z,6.97
2022-08-18T10:46:46.918Z,11.73
2022-08-18T10:49:36.963Z,11.43
2022-08-18T10:52:47.163Z,20.25
2022-08-18T10:55:50.335Z,6.40
2022-08-18T10:58:37.584Z,8.38
2022-08-18T11:01:23.240Z,12.60
2022-08-18T11:04:27.519Z,9.40
2022-08-18T11:07:14.769Z,9.43
2022-08-18T11:10:12.943Z,12.38
2022-08-18T11:13:10.897Z,8.98
2022-08-18T11:16:04.428Z,8.57
2022-08-18T11:18:58.289Z,13.05
2022-08-18T11:21:43.744Z,10.05
2022-08-18T11:24:35.451Z,6.30
2022-08-18T11:27:28.873Z,8.55
2022-08-18T11:30:12.115Z,10.93
2022-08-18T11:32:51.515Z,11.60
2022-08-18T11:35:36.403Z,6.13
2022-08-18T11:41:27.496Z,11.57
2022-08-18T11:44:31.649Z,4.63
2022-08-18T11:47:27.983Z,5.53
2022-08-18T11:50:14.741Z,8.88
2022-08-18T11:56:13.276Z,7.55
2022-08-18T11:59:52.245Z,6.18
2022-08-18T12:02:25.509Z,5.57
2022-08-18T12:05:10.259Z,7.40
2022-08-18T12:07:58.011Z,5.43
2022-08-18T12:10:37.033Z,7.38
2022-08-18T12:13:13.297Z,7.07
2022-08-18T12:15:51.181Z,8.63
2022-08-18T12:18:29.772Z,11.70
2022-08-18T12:21:07.471Z,7.57
2022-08-18T12:23:52.284Z,5.25
2022-08-18T12:26:38.783Z,15.50
2022-08-18T12:29:12.998Z,10.98
2022-08-18T12:31:52.483Z,10.95
2022-08-18T12:34:33.845Z,13.90
2022-08-18T12:37:57.538Z,10.18
2022-08-18T12:40:24.418Z,7.45
2022-08-18T12:43:02.099Z,10.50
2022-08-18T12:48:45.811Z,10.35
2022-08-18T12:51:30.461Z,5.55
2022-08-18T12:54:10.399Z,8.27
2022-08-18T12:56:49.449Z,8.77
2022-08-18T12:59:27.421Z,4.13
2022-08-18T13:02:09.774Z,10.98
2022-08-18T13:04:49.126Z,7.68
2022-08-18T13:07:28.356Z,9.30
2022-08-18T13:10:00.094Z,10.02
2022-08-18T13:12:30.337Z,10.55
2022-08-18T13:15:01.605Z,7.15
2022-08-18T13:17:41.397Z,11.50
2022-08-18T13:20:21.490Z,8.43
2022-08-18T13:23:00.130Z,6.55
2022-08-18T13:25:39.677Z,8.00
2022-08-18T13:28:21.174Z,8.15
2022-08-18T13:30:59.694Z,8.30
2022-08-18T13:33:57.481Z,6.85
2022-08-18T13:36:46.153Z,6.45
2022-08-18T13:39:23.515Z,6.75
2022-08-18T13:42:01.156Z,10.25
2022-08-18T13:45:25.202Z,6.05
2022-08-18T13:48:02.516Z,8.95
2022-08-18T13:50:47.130Z,5.75
2022-08-18T13:53:40.564Z,5.45
2022-08-18T13:56:33.304Z,6.90
2022-08-18T13:59:13.193Z,7.68
2022-08-18T14:01:53.006Z,5.18
2022-08-18T14:04:28.327Z,7.78
2022-08-18T14:07:03.182Z,5.63
2022-08-18T14:09:48.581Z,6.97
2022-08-18T14:12:33.201Z,8.25
2022-08-18T14:15:12.367Z,11.45
2022-08-18T14:17:42.892Z,5.47
2022-08-18T14:20:39.800Z,6.07
2022-08-18T14:23:40.167Z,6.90
2022-08-18T14:26:39.796Z,7.28
2022-08-18T14:29:17.606Z,4.88
2022-08-18T14:32:29.068Z,6.93
2022-08-18T14:35:31.954Z,4.55
2022-08-18T14:38:11.803Z,9.93
2022-08-18T14:40:51.818Z,4.47
2022-08-18T14:43:28.780Z,7.25
2022-08-18T14:46:32.556Z,7.18
2022-08-18T14:49:05.348Z,6.07
2022-08-18T14:51:46.446Z,4.88
2022-08-18T14:54:28.627Z,6.32
2022-08-18T14:57:07.426Z,9.23
2022-08-18T14:59:51.595Z,6.55
2022-08-18T15:02:24.404Z,8.02
2022-08-18T15:05:03.035Z,13.02
2022-08-18T15:08:09.123Z,7.50
2022-08-18T15:10:45.110Z,5.13
2022-08-18T15:13:27.663Z,4.90
2022-08-18T15:16:05.643Z,7.88
2022-08-18T15:18:44.094Z,8.18
2022-08-18T15:21:41.070Z,8.90
2022-08-18T15:24:37.669Z,5.65
2022-08-18T15:27:10.266Z,10.82
2022-08-18T15:29:52.371Z,3.83
2022-08-18T15:32:27.780Z,8.35
2022-08-18T15:35:11.744Z,5.05
2022-08-18T15:37:51.367Z,5.15
2022-08-18T15:40:41.371Z,8.80
2022-08-18T15:43:23.433Z,10.82
2022-08-18T15:46:05.591Z,5.25
2022-08-18T15:48:51.951Z,11.18
2022-08-18T15:51:35.486Z,7.40
2022-08-18T15:54:25.392Z,14.45
2022-08-18T15:57:35.321Z,4.65
2022-08-18T16:00:12.914Z,9.73
2022-08-18T16:03:01.895Z,5.53
2022-08-18T16:05:44.027Z,7.22
2022-08-18T16:08:33.421Z,6.90
2022-08-18T16:11:28.317Z,10.20
2022-08-18T16:14:01.707Z,12.80
2022-08-18T16:16:38.865Z,11.60
2022-08-18T16:19:25.683Z,12.15
2022-08-18T16:22:07.417Z,12.73
2022-08-18T16:24:47.855Z,13.02
2022-08-18T16:27:37.674Z,15.40
2022-08-18T16:30:17.349Z,17.58
2022-08-18T16:33:00.516Z,17.25
2022-08-18T16:35:31.362Z,15.85
2022-08-18T16:38:16.785Z,25.52
2022-08-18T16:40:52.375Z,18.33
2022-08-18T16:43:27.184Z,21.45
2022-08-18T16:46:10.621Z,20.48
2022-08-18T16:48:50.968Z,14.15
2022-08-18T16:51:38.091Z,22.73
2022-08-18T16:54:18.764Z,21.75
2022-08-18T16:56:56.829Z,23.80
2022-08-18T16:59:45.054Z,26.20
2022-08-18T17:02:36.982Z,20.83
2022-08-18T17:05:15.791Z,22.90
2022-08-18T17:07:51.803Z,14.77
2022-08-18T17:10:38.641Z,35.10
2022-08-18T17:13:14.582Z,16.45
2022-08-18T17:15:52.982Z,12.35
2022-08-18T17:18:35.832Z,30.85
2022-08-18T17:21:18.971Z,36.85
2022-08-18T17:23:52.236Z,27.55
2022-08-18T17:27:26.265Z,17.08
2022-08-18T17:30:18.765Z,16.33
2022-08-18T17:33:00.748Z,17.35
2022-08-18T17:35:43.365Z,21.90
2022-08-18T17:38:29.973Z,17.15
2022-08-18T17:41:11.049Z,26.45
2022-08-18T17:43:54.618Z,20.42
2022-08-18T17:46:43.795Z,19.52
2022-08-18T17:49:54.387Z,11.50
2022-08-18T17:52:56.171Z,13.50
2022-08-18T17:55:45.190Z,13.07
2022-08-18T17:59:42.820Z,19.63
2022-08-18T18:02:39.162Z,21.02
2022-08-18T18:05:20.402Z,12.95
2022-08-18T18:08:01.825Z,15.30
2022-08-18T18:13:57.524Z,10.38
2022-08-18T18:16:38.746Z,19.25
2022-08-18T18:19:33.576Z,14.95
2022-08-18T18:22:23.093Z,8.98
2022-08-18T18:25:04.471Z,14.32
2022-08-18T18:27:50.574Z,15.65
2022-08-18T18:30:37.009Z,24.10
2022-08-18T18:33:31.803Z,16.38
2022-08-18T18:36:05.454Z,9.80
2022-08-18T18:38:48.891Z,9.68
2022-08-18T18:41:36.891Z,12.75
2022-08-18T18:44:17.390Z,10.52
2022-08-18T18:47:14.763Z,12.90
2022-08-18T18:49:53.474Z,10.32
2022-08-18T18:52:47.993Z,13.50
2022-08-18T18:55:27.210Z,12.27
2022-08-18T18:58:37.018Z,11.02
2022-08-18T19:01:20.460Z,16.05
2022-08-18T19:04:18.459Z,13.32
2022-08-18T19:07:22.674Z,16.25
2022-08-18T19:12:46.801Z,13.57
2022-08-18T19:15:28.725Z,15.50
2022-08-18T19:18:10.625Z,12.02
2022-08-18T19:22:04.197Z,7.72
2022-08-18T19:24:23.948Z,13.13
2022-08-18T19:27:00.351Z,8.77
2022-08-18T19:29:52.177Z,13.90
2022-08-18T19:32:37.647Z,8.82
2022-08-18T19:35:12.537Z,15.85
2022-08-18T19:38:20.878Z,12.32
2022-08-18T19:41:31.008Z,8.63
2022-08-18T19:44:18.021Z,12.20
2022-08-18T19:46:57.495Z,13.27
2022-08-18T19:50:07.353Z,9.88
2022-08-18T19:53:04.512Z,13.93
2022-08-18T19:56:05.159Z,11.10
2022-08-18T19:59:21.472Z,9.13
2022-08-18T20:02:37.816Z,12.55
2022-08-18T20:05:22.878Z,12.05
2022-08-18T20:08:12.648Z,9.45
2022-08-18T20:11:12.534Z,17.48
2022-08-18T20:13:56.892Z,12.27
2022-08-18T20:16:46.351Z,19.10
2022-08-18T20:20:26.837Z,13.88
2022-08-18T20:23:37.635Z,14.45
2022-08-18T20:26:45.311Z,11.20
2022-08-18T20:29:46.439Z,9.30
2022-08-18T20:32:41.196Z,12.82
2022-08-18T20:35:29.654Z,13.73
2022-08-18T20:38:31.990Z,9.57
2022-08-18T20:41:39.859Z,10.90
2022-08-18T20:44:28.722Z,13.32
2022-08-18T20:47:19.548Z,12.52
2022-08-18T20:50:31.689Z,16.13
2022-08-18T20:53:08.908Z,8.90
2022-08-18T20:55:50.629Z,13.80
2022-08-18T20:58:37.033Z,10.90
2022-08-18T21:01:12.082Z,10.85
2022-08-18T21:03:59.482Z,14.02
2022-08-18T21:06:44.387Z,10.45
2022-08-18T21:09:33.477Z,13.95
2022-08-18T21:12:06.395Z,9.02
2022-08-18T21:14:39.245Z,15.88
2022-08-18T21:17:32.642Z,13.40
2022-08-18T21:20:09.057Z,8.45
2022-08-18T21:22:45.884Z,11.20
2022-08-18T21:25:20.953Z,11.15
2022-08-18T21:28:07.700Z,12.70
2022-08-18T21:30:40.570Z,9.98
2022-08-18T21:33:28.865Z,11.65
2022-08-18T21:36:23.453Z,12.65
2022-08-18T21:39:16.091Z,13.35
2022-08-18T21:42:06.008Z,10.48
2022-08-18T21:44:46.584Z,18.85
2022-08-18T21:47:29.658Z,13.82
2022-08-18T21:50:27.549Z,13.05
2022-08-18T21:53:20.043Z,11.93
2022-08-18T21:55:58.952Z,11.50
2022-08-18T21:58:49.919Z,15.88
2022-08-18T22:01:40.181Z,13.35
2022-08-18T22:04:24.424Z,12.20
2022-08-18T22:07:06.019Z,12.45
2022-08-18T22:10:31.620Z,16.42
2022-08-18T22:13:22.176Z,15.55
2022-08-18T22:16:02.648Z,11.52
2022-08-18T22:18:54.146Z,12.90
2022-08-18T22:22:26.896Z,11.88
2022-08-18T22:25:07.682Z,11.57
2022-08-18T22:27:54.078Z,10.35
2022-08-18T22:30:44.413Z,13.60
2022-08-18T22:33:29.992Z,10.27
2022-08-18T22:36:10.047Z,12.05
2022-08-18T22:38:56.019Z,10.57
2022-08-18T22:41:42.362Z,11.77
2022-08-18T22:44:22.892Z,14.55
2022-08-18T22:47:08.829Z,9.32
2022-08-18T22:49:50.173Z,10.15
2022-08-18T22:52:34.681Z,14.45
2022-08-18T22:55:14.143Z,14.55
2022-08-18T22:57:51.839Z,13.35
2022-08-18T23:00:32.450Z,11.73
2022-08-18T23:03:18.477Z,12.63
2022-08-18T23:06:07.288Z,11.13
2022-08-18T23:08:55.375Z,16.48
2022-08-18T23:11:31.515Z,12.18
2022-08-18T23:14:14.467Z,14.05
2022-08-18T23:16:54.362Z,14.93
2022-08-18T23:19:34.487Z,13.55
2022-08-18T23:22:15.369Z,20.17
2022-08-18T23:27:42.623Z,14.13
2022-08-18T23:30:30.272Z,11.50
2022-08-18T23:33:11.482Z,16.73
2022-08-18T23:36:01.055Z,14.70
2022-08-18T23:38:42.949Z,11.85
2022-08-18T23:41:23.367Z,16.92
2022-08-18T23:44:09.359Z,14.98
2022-08-18T23:46:46.660Z,14.88
2022-08-18T23:49:28.900Z,17.70
2022-08-18T23:52:08.541Z,17.08
2022-08-18T23:54:39.163Z,13.07
2022-08-18T23:57:19.781Z,11.23
